<?xml version="1.0" encoding="UTF-8"?>
<gpx xmlns="http://www.topografix.com/GPX/1/1" xmlns:gpsies="http://www.gpsies.com/GPX/1/0" creator="GPSies http://www.gpsies.com - Mirow - R&amp;#246;bel" version="1.1" xmlns:xsi="http://www.w3.org/2001/XMLSchema-instance" xsi:schemaLocation="http://www.topografix.com/GPX/1/1 http://www.topografix.com/GPX/1/1/gpx.xsd http://www.gpsies.com/GPX/1/0 http://www.gpsies.com/gpsies.xsd">
  <metadata>
    <name>Mirow - Röbel</name>
    <author>
      <name>Mecklenburger-Radtour</name>
      <link href="http://www.gpsies.com/mapUser.do?username=Mecklenburger-Radtour">
        <text>Mecklenburger-Radtour on GPSies.com</text>
        <type>GPSiesUserOnWeb</type>
      </link>
    </author>
    <link href="http://www.gpsies.com/map.do?fileId=cmbmnyasvfvwkmid">
      <text>Mirow - Röbel on GPSies.com</text>
      <type>trackOnWeb</type>
    </link>
    <time>2017-06-10T16:51:36Z</time>
    <extensions>
      <gpsies:property>one-way trip</gpsies:property>
      <gpsies:trackLengthMeter>28970.333554040964</gpsies:trackLengthMeter>
      <gpsies:totalAscentMeter>151.0</gpsies:totalAscentMeter>
      <gpsies:totalDescentMeter>144.0</gpsies:totalDescentMeter>
      <gpsies:minHeightMeter>57.0</gpsies:minHeightMeter>
      <gpsies:maxHeightMeter>77.0</gpsies:maxHeightMeter>
    </extensions>
  </metadata>
  <wpt lat="53.35390700" lon="12.69092559">
    <ele>65.000000</ele>
    <name>Seehotel Zielow</name>
    <sym>residence</sym>
    <type>Residence</type>
  </wpt>
  <wpt lat="53.37953981" lon="12.66985416">
    <ele>70.000000</ele>
    <name>Romantikhotel Gutshaus Ludorf</name>
    <sym>residence</sym>
    <type>Residence</type>
  </wpt>
  <wpt lat="53.37679417" lon="12.60591030">
    <ele>68.000000</ele>
    <name>Markt Röbel</name>
    <sym>generic</sym>
    <type>Generic</type>
  </wpt>
  <wpt lat="53.38280042" lon="12.60882318">
    <ele>65.000000</ele>
    <name>Hotel Müritzterrassen</name>
    <sym>residence</sym>
    <type>Residence</type>
  </wpt>
  <wpt lat="53.39742370" lon="12.62302279">
    <ele>71.000000</ele>
    <name>Müritz Strandhotel</name>
    <sym>residence</sym>
    <type>Residence</type>
  </wpt>
  <wpt lat="53.39095885" lon="12.62132763">
    <ele>68.000000</ele>
    <name>Hotel Seelust</name>
    <sym>residence</sym>
    <type>Residence</type>
  </wpt>
  <wpt lat="53.35369888" lon="12.57814407">
    <ele>76.000000</ele>
    <name>Bio-Landhotel Zur Scheune</name>
    <sym>residence</sym>
    <type>Residence</type>
  </wpt>
  <wpt lat="53.37428198" lon="12.59838402">
    <ele>70.000000</ele>
    <name>Ferienresidenz Müritz Park</name>
    <sym>residence</sym>
    <type>Residence</type>
  </wpt>
  <wpt lat="53.27420226" lon="12.81553030">
    <ele>66.000000</ele>
    <name>Hotel Mecklenburger Hof</name>
    <sym>residence</sym>
    <type>Residence</type>
  </wpt>
  <wpt lat="53.27593446" lon="12.80910372">
    <ele>64.000000</ele>
    <name>Hotel Alte Schlossbrauerei</name>
    <sym>residence</sym>
    <type>Residence</type>
  </wpt>
  <wpt lat="53.27884697" lon="12.81526744">
    <ele>64.000000</ele>
    <name>Hotel An der Seepromenade</name>
    <sym>residence</sym>
    <type>Residence</type>
  </wpt>
  <trk>
    <name>Mirow - Röbel on GPSies.com</name>
    <link href="http://www.gpsies.com/map.do?fileId=cmbmnyasvfvwkmid">
      <type>trackOnWeb</type>
    </link>
    <link href="http://www.gpsies.com/charts/cm/map/cmbmnyasvfvwkmid_map.png">
      <type>elevationChartUrlMap</type>
    </link>
    <link href="http://www.gpsies.com/charts/cm/mapThumb/cmbmnyasvfvwkmid_mapThumb.png">
      <type>elevationChartUrlMapThumb</type>
    </link>
    <link href="http://www.gpsies.com/charts/cm/tab/cmbmnyasvfvwkmid_tab.png">
      <type>elevationChartUrlTab</type>
    </link>
    <trkseg>
      <trkpt lat="53.27528650" lon="12.81261200">
        <ele>62.000000</ele>
        <time>2010-01-01T00:00:00Z</time>
      </trkpt>
      <trkpt lat="53.27515810" lon="12.81209700">
        <ele>62.000000</ele>
        <time>2010-01-01T00:00:13Z</time>
      </trkpt>
      <trkpt lat="53.27483740" lon="12.81196830">
        <ele>62.000000</ele>
        <time>2010-01-01T00:00:26Z</time>
      </trkpt>
      <trkpt lat="53.27279720" lon="12.80945770">
        <ele>62.000000</ele>
        <time>2010-01-01T00:02:07Z</time>
      </trkpt>
      <trkpt lat="53.27211710" lon="12.80892130">
        <ele>61.000000</ele>
        <time>2010-01-01T00:02:38Z</time>
      </trkpt>
      <trkpt lat="53.27196000" lon="12.80844000">
        <ele>60.000000</ele>
        <time>2010-01-01T00:02:51Z</time>
      </trkpt>
      <trkpt lat="53.27194000" lon="12.80834000">
        <ele>61.000000</ele>
        <time>2010-01-01T00:02:53Z</time>
      </trkpt>
      <trkpt lat="53.27186000" lon="12.80762000">
        <ele>61.000000</ele>
        <time>2010-01-01T00:03:11Z</time>
      </trkpt>
      <trkpt lat="53.27184000" lon="12.80710000">
        <ele>62.000000</ele>
        <time>2010-01-01T00:03:23Z</time>
      </trkpt>
      <trkpt lat="53.27186000" lon="12.80666000">
        <ele>62.000000</ele>
        <time>2010-01-01T00:03:34Z</time>
      </trkpt>
      <trkpt lat="53.27190000" lon="12.80621000">
        <ele>62.000000</ele>
        <time>2010-01-01T00:03:45Z</time>
      </trkpt>
      <trkpt lat="53.27180000" lon="12.80431000">
        <ele>61.000000</ele>
        <time>2010-01-01T00:04:30Z</time>
      </trkpt>
      <trkpt lat="53.27185000" lon="12.80389000">
        <ele>61.000000</ele>
        <time>2010-01-01T00:04:41Z</time>
      </trkpt>
      <trkpt lat="53.27192000" lon="12.80349000">
        <ele>60.000000</ele>
        <time>2010-01-01T00:04:51Z</time>
      </trkpt>
      <trkpt lat="53.27208000" lon="12.80293000">
        <ele>59.000000</ele>
        <time>2010-01-01T00:05:05Z</time>
      </trkpt>
      <trkpt lat="53.27231000" lon="12.80234000">
        <ele>61.000000</ele>
        <time>2010-01-01T00:05:22Z</time>
      </trkpt>
      <trkpt lat="53.27239000" lon="12.80222000">
        <ele>62.000000</ele>
        <time>2010-01-01T00:05:27Z</time>
      </trkpt>
      <trkpt lat="53.27225000" lon="12.80202000">
        <ele>61.000000</ele>
        <time>2010-01-01T00:05:34Z</time>
      </trkpt>
      <trkpt lat="53.27226000" lon="12.80222000">
        <ele>61.000000</ele>
        <time>2010-01-01T00:05:39Z</time>
      </trkpt>
      <trkpt lat="53.27225000" lon="12.80202000">
        <ele>61.000000</ele>
        <time>2010-01-01T00:05:44Z</time>
      </trkpt>
      <trkpt lat="53.27191000" lon="12.80166000">
        <ele>63.000000</ele>
        <time>2010-01-01T00:06:00Z</time>
      </trkpt>
      <trkpt lat="53.27139000" lon="12.80090000">
        <ele>65.000000</ele>
        <time>2010-01-01T00:06:27Z</time>
      </trkpt>
      <trkpt lat="53.27049000" lon="12.79921000">
        <ele>64.000000</ele>
        <time>2010-01-01T00:07:21Z</time>
      </trkpt>
      <trkpt lat="53.27047000" lon="12.79904000">
        <ele>64.000000</ele>
        <time>2010-01-01T00:07:26Z</time>
      </trkpt>
      <trkpt lat="53.27006000" lon="12.79825000">
        <ele>68.000000</ele>
        <time>2010-01-01T00:07:51Z</time>
      </trkpt>
      <trkpt lat="53.26980000" lon="12.79769000">
        <ele>70.000000</ele>
        <time>2010-01-01T00:08:08Z</time>
      </trkpt>
      <trkpt lat="53.26950000" lon="12.79721000">
        <ele>70.000000</ele>
        <time>2010-01-01T00:08:24Z</time>
      </trkpt>
      <trkpt lat="53.26830000" lon="12.79497000">
        <ele>64.000000</ele>
        <time>2010-01-01T00:09:36Z</time>
      </trkpt>
      <trkpt lat="53.26828000" lon="12.79490000">
        <ele>64.000000</ele>
        <time>2010-01-01T00:09:38Z</time>
      </trkpt>
      <trkpt lat="53.26828000" lon="12.79481000">
        <ele>64.000000</ele>
        <time>2010-01-01T00:09:40Z</time>
      </trkpt>
      <trkpt lat="53.26834000" lon="12.79433000">
        <ele>64.000000</ele>
        <time>2010-01-01T00:09:52Z</time>
      </trkpt>
      <trkpt lat="53.26844000" lon="12.79360000">
        <ele>65.000000</ele>
        <time>2010-01-01T00:10:10Z</time>
      </trkpt>
      <trkpt lat="53.26855000" lon="12.79315000">
        <ele>65.000000</ele>
        <time>2010-01-01T00:10:22Z</time>
      </trkpt>
      <trkpt lat="53.26873000" lon="12.79249000">
        <ele>66.000000</ele>
        <time>2010-01-01T00:10:39Z</time>
      </trkpt>
      <trkpt lat="53.26894000" lon="12.79189000">
        <ele>66.000000</ele>
        <time>2010-01-01T00:10:56Z</time>
      </trkpt>
      <trkpt lat="53.29139000" lon="12.74147000">
        <ele>65.000000</ele>
        <time>2010-01-01T00:36:00Z</time>
      </trkpt>
      <trkpt lat="53.29205000" lon="12.73998000">
        <ele>63.000000</ele>
        <time>2010-01-01T00:36:45Z</time>
      </trkpt>
      <trkpt lat="53.29233000" lon="12.73949000">
        <ele>64.000000</ele>
        <time>2010-01-01T00:37:01Z</time>
      </trkpt>
      <trkpt lat="53.29264000" lon="12.73905000">
        <ele>63.000000</ele>
        <time>2010-01-01T00:37:17Z</time>
      </trkpt>
      <trkpt lat="53.29315000" lon="12.73844000">
        <ele>64.000000</ele>
        <time>2010-01-01T00:37:42Z</time>
      </trkpt>
      <trkpt lat="53.29319000" lon="12.73861000">
        <ele>64.000000</ele>
        <time>2010-01-01T00:37:47Z</time>
      </trkpt>
      <trkpt lat="53.29379000" lon="12.73949000">
        <ele>65.000000</ele>
        <time>2010-01-01T00:38:18Z</time>
      </trkpt>
      <trkpt lat="53.29388000" lon="12.73956000">
        <ele>65.000000</ele>
        <time>2010-01-01T00:38:22Z</time>
      </trkpt>
      <trkpt lat="53.29388000" lon="12.73955000">
        <ele>65.000000</ele>
        <time>2010-01-01T00:38:23Z</time>
      </trkpt>
      <trkpt lat="53.29413000" lon="12.73973000">
        <ele>65.000000</ele>
        <time>2010-01-01T00:38:34Z</time>
      </trkpt>
      <trkpt lat="53.29438000" lon="12.73981000">
        <ele>65.000000</ele>
        <time>2010-01-01T00:38:44Z</time>
      </trkpt>
      <trkpt lat="53.29437000" lon="12.73992000">
        <ele>65.000000</ele>
        <time>2010-01-01T00:38:46Z</time>
      </trkpt>
      <trkpt lat="53.29444000" lon="12.74003000">
        <ele>65.000000</ele>
        <time>2010-01-01T00:38:50Z</time>
      </trkpt>
      <trkpt lat="53.29459000" lon="12.73983000">
        <ele>65.000000</ele>
        <time>2010-01-01T00:38:58Z</time>
      </trkpt>
      <trkpt lat="53.29492000" lon="12.73955000">
        <ele>66.000000</ele>
        <time>2010-01-01T00:39:13Z</time>
      </trkpt>
      <trkpt lat="53.29648000" lon="12.73873000">
        <ele>65.000000</ele>
        <time>2010-01-01T00:40:18Z</time>
      </trkpt>
      <trkpt lat="53.29726000" lon="12.73820000">
        <ele>65.000000</ele>
        <time>2010-01-01T00:40:52Z</time>
      </trkpt>
      <trkpt lat="53.29810000" lon="12.73756000">
        <ele>67.000000</ele>
        <time>2010-01-01T00:41:29Z</time>
      </trkpt>
      <trkpt lat="53.29870000" lon="12.73710000">
        <ele>71.000000</ele>
        <time>2010-01-01T00:41:55Z</time>
      </trkpt>
      <trkpt lat="53.29876000" lon="12.73691000">
        <ele>69.000000</ele>
        <time>2010-01-01T00:42:00Z</time>
      </trkpt>
      <trkpt lat="53.29902000" lon="12.73669000">
        <ele>69.000000</ele>
        <time>2010-01-01T00:42:12Z</time>
      </trkpt>
      <trkpt lat="53.29960000" lon="12.73546000">
        <ele>65.000000</ele>
        <time>2010-01-01T00:42:50Z</time>
      </trkpt>
      <trkpt lat="53.29959000" lon="12.73479000">
        <ele>65.000000</ele>
        <time>2010-01-01T00:43:06Z</time>
      </trkpt>
      <trkpt lat="53.30027000" lon="12.73442000">
        <ele>65.000000</ele>
        <time>2010-01-01T00:43:34Z</time>
      </trkpt>
      <trkpt lat="53.30613000" lon="12.73130000">
        <ele>63.000000</ele>
        <time>2010-01-01T00:47:40Z</time>
      </trkpt>
      <trkpt lat="53.31683000" lon="12.72555000">
        <ele>70.000000</ele>
        <time>2010-01-01T00:55:10Z</time>
      </trkpt>
      <trkpt lat="53.31682000" lon="12.72529000">
        <ele>70.000000</ele>
        <time>2010-01-01T00:55:17Z</time>
      </trkpt>
      <trkpt lat="53.31686000" lon="12.72512000">
        <ele>70.000000</ele>
        <time>2010-01-01T00:55:21Z</time>
      </trkpt>
      <trkpt lat="53.31810000" lon="12.72275000">
        <ele>65.000000</ele>
        <time>2010-01-01T00:56:36Z</time>
      </trkpt>
      <trkpt lat="53.31826000" lon="12.72239000">
        <ele>65.000000</ele>
        <time>2010-01-01T00:56:47Z</time>
      </trkpt>
      <trkpt lat="53.31834000" lon="12.72185000">
        <ele>65.000000</ele>
        <time>2010-01-01T00:57:00Z</time>
      </trkpt>
      <trkpt lat="53.31837000" lon="12.72138000">
        <ele>65.000000</ele>
        <time>2010-01-01T00:57:12Z</time>
      </trkpt>
      <trkpt lat="53.31842000" lon="12.72133000">
        <ele>65.000000</ele>
        <time>2010-01-01T00:57:14Z</time>
      </trkpt>
      <trkpt lat="53.31839000" lon="12.71623000">
        <ele>66.000000</ele>
        <time>2010-01-01T00:59:16Z</time>
      </trkpt>
      <trkpt lat="53.31837000" lon="12.71600000">
        <ele>65.000000</ele>
        <time>2010-01-01T00:59:21Z</time>
      </trkpt>
      <trkpt lat="53.31826000" lon="12.71520000">
        <ele>65.000000</ele>
        <time>2010-01-01T00:59:41Z</time>
      </trkpt>
      <trkpt lat="53.31808000" lon="12.71414000">
        <ele>66.000000</ele>
        <time>2010-01-01T01:00:07Z</time>
      </trkpt>
      <trkpt lat="53.31802000" lon="12.71368000">
        <ele>65.000000</ele>
        <time>2010-01-01T01:00:19Z</time>
      </trkpt>
      <trkpt lat="53.31797000" lon="12.71304000">
        <ele>64.000000</ele>
        <time>2010-01-01T01:00:34Z</time>
      </trkpt>
      <trkpt lat="53.31794000" lon="12.71241000">
        <ele>64.000000</ele>
        <time>2010-01-01T01:00:49Z</time>
      </trkpt>
      <trkpt lat="53.31794000" lon="12.71175000">
        <ele>64.000000</ele>
        <time>2010-01-01T01:01:05Z</time>
      </trkpt>
      <trkpt lat="53.31798000" lon="12.71102000">
        <ele>63.000000</ele>
        <time>2010-01-01T01:01:22Z</time>
      </trkpt>
      <trkpt lat="53.31806000" lon="12.71025000">
        <ele>64.000000</ele>
        <time>2010-01-01T01:01:41Z</time>
      </trkpt>
      <trkpt lat="53.31831000" lon="12.70896000">
        <ele>64.000000</ele>
        <time>2010-01-01T01:02:14Z</time>
      </trkpt>
      <trkpt lat="53.31841000" lon="12.70858000">
        <ele>64.000000</ele>
        <time>2010-01-01T01:02:24Z</time>
      </trkpt>
      <trkpt lat="53.31855000" lon="12.70815000">
        <ele>64.000000</ele>
        <time>2010-01-01T01:02:35Z</time>
      </trkpt>
      <trkpt lat="53.31876000" lon="12.70763000">
        <ele>64.000000</ele>
        <time>2010-01-01T01:02:50Z</time>
      </trkpt>
      <trkpt lat="53.31901000" lon="12.70712000">
        <ele>63.000000</ele>
        <time>2010-01-01T01:03:06Z</time>
      </trkpt>
      <trkpt lat="53.32073000" lon="12.70382000">
        <ele>63.000000</ele>
        <time>2010-01-01T01:04:51Z</time>
      </trkpt>
      <trkpt lat="53.32132000" lon="12.70264000">
        <ele>67.000000</ele>
        <time>2010-01-01T01:05:28Z</time>
      </trkpt>
      <trkpt lat="53.32156000" lon="12.70208000">
        <ele>67.000000</ele>
        <time>2010-01-01T01:05:44Z</time>
      </trkpt>
      <trkpt lat="53.32424000" lon="12.69475000">
        <ele>61.000000</ele>
        <time>2010-01-01T01:09:10Z</time>
      </trkpt>
      <trkpt lat="53.32639000" lon="12.68862000">
        <ele>65.000000</ele>
        <time>2010-01-01T01:11:59Z</time>
      </trkpt>
      <trkpt lat="53.32673000" lon="12.68868000">
        <ele>65.000000</ele>
        <time>2010-01-01T01:12:13Z</time>
      </trkpt>
      <trkpt lat="53.32704000" lon="12.68877000">
        <ele>65.000000</ele>
        <time>2010-01-01T01:12:26Z</time>
      </trkpt>
      <trkpt lat="53.32775000" lon="12.68922000">
        <ele>65.000000</ele>
        <time>2010-01-01T01:12:56Z</time>
      </trkpt>
      <trkpt lat="53.32819000" lon="12.68941000">
        <ele>66.000000</ele>
        <time>2010-01-01T01:13:14Z</time>
      </trkpt>
      <trkpt lat="53.32878000" lon="12.68949000">
        <ele>67.000000</ele>
        <time>2010-01-01T01:13:38Z</time>
      </trkpt>
      <trkpt lat="53.32891000" lon="12.68948000">
        <ele>67.000000</ele>
        <time>2010-01-01T01:13:43Z</time>
      </trkpt>
      <trkpt lat="53.32910000" lon="12.68932000">
        <ele>68.000000</ele>
        <time>2010-01-01T01:13:52Z</time>
      </trkpt>
      <trkpt lat="53.32933000" lon="12.68936000">
        <ele>69.000000</ele>
        <time>2010-01-01T01:14:01Z</time>
      </trkpt>
      <trkpt lat="53.32938000" lon="12.68929000">
        <ele>69.000000</ele>
        <time>2010-01-01T01:14:04Z</time>
      </trkpt>
      <trkpt lat="53.32938000" lon="12.68913000">
        <ele>68.000000</ele>
        <time>2010-01-01T01:14:07Z</time>
      </trkpt>
      <trkpt lat="53.32933000" lon="12.68906000">
        <ele>68.000000</ele>
        <time>2010-01-01T01:14:10Z</time>
      </trkpt>
      <trkpt lat="53.32957000" lon="12.68884000">
        <ele>69.000000</ele>
        <time>2010-01-01T01:14:21Z</time>
      </trkpt>
      <trkpt lat="53.32975000" lon="12.68871000">
        <ele>69.000000</ele>
        <time>2010-01-01T01:14:29Z</time>
      </trkpt>
      <trkpt lat="53.32986000" lon="12.68866000">
        <ele>68.000000</ele>
        <time>2010-01-01T01:14:33Z</time>
      </trkpt>
      <trkpt lat="53.32993000" lon="12.68868000">
        <ele>68.000000</ele>
        <time>2010-01-01T01:14:36Z</time>
      </trkpt>
      <trkpt lat="53.33060000" lon="12.68899000">
        <ele>66.000000</ele>
        <time>2010-01-01T01:15:04Z</time>
      </trkpt>
      <trkpt lat="53.33077000" lon="12.68895000">
        <ele>66.000000</ele>
        <time>2010-01-01T01:15:11Z</time>
      </trkpt>
      <trkpt lat="53.33115000" lon="12.68852000">
        <ele>66.000000</ele>
        <time>2010-01-01T01:15:29Z</time>
      </trkpt>
      <trkpt lat="53.33146000" lon="12.68808000">
        <ele>66.000000</ele>
        <time>2010-01-01T01:15:46Z</time>
      </trkpt>
      <trkpt lat="53.33187000" lon="12.68756000">
        <ele>67.000000</ele>
        <time>2010-01-01T01:16:06Z</time>
      </trkpt>
      <trkpt lat="53.33202000" lon="12.68723000">
        <ele>67.000000</ele>
        <time>2010-01-01T01:16:16Z</time>
      </trkpt>
      <trkpt lat="53.33216000" lon="12.68705000">
        <ele>67.000000</ele>
        <time>2010-01-01T01:16:23Z</time>
      </trkpt>
      <trkpt lat="53.33340000" lon="12.68571000">
        <ele>67.000000</ele>
        <time>2010-01-01T01:17:22Z</time>
      </trkpt>
      <trkpt lat="53.33556000" lon="12.68358000">
        <ele>65.000000</ele>
        <time>2010-01-01T01:19:03Z</time>
      </trkpt>
      <trkpt lat="53.33666000" lon="12.68313000">
        <ele>64.000000</ele>
        <time>2010-01-01T01:19:48Z</time>
      </trkpt>
      <trkpt lat="53.33723000" lon="12.68315000">
        <ele>63.000000</ele>
        <time>2010-01-01T01:20:11Z</time>
      </trkpt>
      <trkpt lat="53.33771000" lon="12.68306000">
        <ele>63.000000</ele>
        <time>2010-01-01T01:20:30Z</time>
      </trkpt>
      <trkpt lat="53.33861000" lon="12.68281000">
        <ele>62.000000</ele>
        <time>2010-01-01T01:21:07Z</time>
      </trkpt>
      <trkpt lat="53.33892000" lon="12.68271000">
        <ele>61.000000</ele>
        <time>2010-01-01T01:21:19Z</time>
      </trkpt>
      <trkpt lat="53.33914000" lon="12.68257000">
        <ele>61.000000</ele>
        <time>2010-01-01T01:21:29Z</time>
      </trkpt>
      <trkpt lat="53.33958000" lon="12.68215000">
        <ele>62.000000</ele>
        <time>2010-01-01T01:21:49Z</time>
      </trkpt>
      <trkpt lat="53.33974000" lon="12.68192000">
        <ele>63.000000</ele>
        <time>2010-01-01T01:21:57Z</time>
      </trkpt>
      <trkpt lat="53.34011000" lon="12.68120000">
        <ele>63.000000</ele>
        <time>2010-01-01T01:22:20Z</time>
      </trkpt>
      <trkpt lat="53.34031000" lon="12.68073000">
        <ele>63.000000</ele>
        <time>2010-01-01T01:22:34Z</time>
      </trkpt>
      <trkpt lat="53.34041000" lon="12.68041000">
        <ele>63.000000</ele>
        <time>2010-01-01T01:22:42Z</time>
      </trkpt>
      <trkpt lat="53.34071000" lon="12.67923000">
        <ele>65.000000</ele>
        <time>2010-01-01T01:23:13Z</time>
      </trkpt>
      <trkpt lat="53.34127000" lon="12.67959000">
        <ele>65.000000</ele>
        <time>2010-01-01T01:23:37Z</time>
      </trkpt>
      <trkpt lat="53.34296000" lon="12.68084000">
        <ele>62.000000</ele>
        <time>2010-01-01T01:24:51Z</time>
      </trkpt>
      <trkpt lat="53.34425000" lon="12.68110000">
        <ele>64.000000</ele>
        <time>2010-01-01T01:25:43Z</time>
      </trkpt>
      <trkpt lat="53.34437000" lon="12.68126000">
        <ele>65.000000</ele>
        <time>2010-01-01T01:25:49Z</time>
      </trkpt>
      <trkpt lat="53.34449000" lon="12.68207000">
        <ele>65.000000</ele>
        <time>2010-01-01T01:26:09Z</time>
      </trkpt>
      <trkpt lat="53.34471000" lon="12.68256000">
        <ele>68.000000</ele>
        <time>2010-01-01T01:26:24Z</time>
      </trkpt>
      <trkpt lat="53.34544000" lon="12.68356000">
        <ele>70.000000</ele>
        <time>2010-01-01T01:27:02Z</time>
      </trkpt>
      <trkpt lat="53.34595000" lon="12.68434000">
        <ele>67.000000</ele>
        <time>2010-01-01T01:27:29Z</time>
      </trkpt>
      <trkpt lat="53.34623000" lon="12.68532000">
        <ele>68.000000</ele>
        <time>2010-01-01T01:27:55Z</time>
      </trkpt>
      <trkpt lat="53.34651000" lon="12.68615000">
        <ele>69.000000</ele>
        <time>2010-01-01T01:28:18Z</time>
      </trkpt>
      <trkpt lat="53.34793000" lon="12.68995000">
        <ele>66.000000</ele>
        <time>2010-01-01T01:30:05Z</time>
      </trkpt>
      <trkpt lat="53.34803000" lon="12.69040000">
        <ele>65.000000</ele>
        <time>2010-01-01T01:30:17Z</time>
      </trkpt>
      <trkpt lat="53.34821000" lon="12.69039000">
        <ele>63.000000</ele>
        <time>2010-01-01T01:30:24Z</time>
      </trkpt>
      <trkpt lat="53.34902000" lon="12.69053000">
        <ele>63.000000</ele>
        <time>2010-01-01T01:30:56Z</time>
      </trkpt>
      <trkpt lat="53.34964000" lon="12.69036000">
        <ele>61.000000</ele>
        <time>2010-01-01T01:31:22Z</time>
      </trkpt>
      <trkpt lat="53.35031000" lon="12.69038000">
        <ele>61.000000</ele>
        <time>2010-01-01T01:31:48Z</time>
      </trkpt>
      <trkpt lat="53.35114000" lon="12.69061000">
        <ele>60.000000</ele>
        <time>2010-01-01T01:32:22Z</time>
      </trkpt>
      <trkpt lat="53.35166000" lon="12.69088000">
        <ele>60.000000</ele>
        <time>2010-01-01T01:32:44Z</time>
      </trkpt>
      <trkpt lat="53.35166000" lon="12.69087000">
        <ele>60.000000</ele>
        <time>2010-01-01T01:32:44Z</time>
      </trkpt>
      <trkpt lat="53.35194000" lon="12.69102000">
        <ele>60.000000</ele>
        <time>2010-01-01T01:32:56Z</time>
      </trkpt>
      <trkpt lat="53.35319000" lon="12.69031000">
        <ele>65.000000</ele>
        <time>2010-01-01T01:33:49Z</time>
      </trkpt>
      <trkpt lat="53.35363000" lon="12.69022000">
        <ele>65.000000</ele>
        <time>2010-01-01T01:34:06Z</time>
      </trkpt>
      <trkpt lat="53.35384000" lon="12.68992000">
        <ele>65.000000</ele>
        <time>2010-01-01T01:34:17Z</time>
      </trkpt>
      <trkpt lat="53.35411000" lon="12.68981000">
        <ele>65.000000</ele>
        <time>2010-01-01T01:34:29Z</time>
      </trkpt>
      <trkpt lat="53.35448000" lon="12.68973000">
        <ele>65.000000</ele>
        <time>2010-01-01T01:34:44Z</time>
      </trkpt>
      <trkpt lat="53.35474000" lon="12.68977000">
        <ele>66.000000</ele>
        <time>2010-01-01T01:34:54Z</time>
      </trkpt>
      <trkpt lat="53.35517000" lon="12.68975000">
        <ele>66.000000</ele>
        <time>2010-01-01T01:35:11Z</time>
      </trkpt>
      <trkpt lat="53.35602000" lon="12.68965000">
        <ele>66.000000</ele>
        <time>2010-01-01T01:35:45Z</time>
      </trkpt>
      <trkpt lat="53.35649000" lon="12.68970000">
        <ele>65.000000</ele>
        <time>2010-01-01T01:36:04Z</time>
      </trkpt>
      <trkpt lat="53.35700000" lon="12.68942000">
        <ele>66.000000</ele>
        <time>2010-01-01T01:36:26Z</time>
      </trkpt>
      <trkpt lat="53.35739000" lon="12.68941000">
        <ele>65.000000</ele>
        <time>2010-01-01T01:36:41Z</time>
      </trkpt>
      <trkpt lat="53.36138000" lon="12.68963000">
        <ele>64.000000</ele>
        <time>2010-01-01T01:39:21Z</time>
      </trkpt>
      <trkpt lat="53.36180000" lon="12.68982000">
        <ele>64.000000</ele>
        <time>2010-01-01T01:39:38Z</time>
      </trkpt>
      <trkpt lat="53.36250000" lon="12.68994000">
        <ele>64.000000</ele>
        <time>2010-01-01T01:40:07Z</time>
      </trkpt>
      <trkpt lat="53.36274000" lon="12.68990000">
        <ele>65.000000</ele>
        <time>2010-01-01T01:40:16Z</time>
      </trkpt>
      <trkpt lat="53.36297000" lon="12.68973000">
        <ele>65.000000</ele>
        <time>2010-01-01T01:40:26Z</time>
      </trkpt>
      <trkpt lat="53.36302000" lon="12.68972000">
        <ele>65.000000</ele>
        <time>2010-01-01T01:40:28Z</time>
      </trkpt>
      <trkpt lat="53.36327000" lon="12.68984000">
        <ele>65.000000</ele>
        <time>2010-01-01T01:40:39Z</time>
      </trkpt>
      <trkpt lat="53.36350000" lon="12.68999000">
        <ele>65.000000</ele>
        <time>2010-01-01T01:40:49Z</time>
      </trkpt>
      <trkpt lat="53.36364000" lon="12.69011000">
        <ele>65.000000</ele>
        <time>2010-01-01T01:40:55Z</time>
      </trkpt>
      <trkpt lat="53.36402000" lon="12.69070000">
        <ele>66.000000</ele>
        <time>2010-01-01T01:41:16Z</time>
      </trkpt>
      <trkpt lat="53.36409000" lon="12.69072000">
        <ele>66.000000</ele>
        <time>2010-01-01T01:41:19Z</time>
      </trkpt>
      <trkpt lat="53.36480000" lon="12.69062000">
        <ele>66.000000</ele>
        <time>2010-01-01T01:41:47Z</time>
      </trkpt>
      <trkpt lat="53.36481000" lon="12.69066000">
        <ele>66.000000</ele>
        <time>2010-01-01T01:41:48Z</time>
      </trkpt>
      <trkpt lat="53.36465000" lon="12.69168000">
        <ele>64.000000</ele>
        <time>2010-01-01T01:42:13Z</time>
      </trkpt>
      <trkpt lat="53.36465000" lon="12.69177000">
        <ele>63.000000</ele>
        <time>2010-01-01T01:42:15Z</time>
      </trkpt>
      <trkpt lat="53.36468000" lon="12.69180000">
        <ele>63.000000</ele>
        <time>2010-01-01T01:42:17Z</time>
      </trkpt>
      <trkpt lat="53.36484000" lon="12.69179000">
        <ele>63.000000</ele>
        <time>2010-01-01T01:42:23Z</time>
      </trkpt>
      <trkpt lat="53.36493000" lon="12.69180000">
        <ele>63.000000</ele>
        <time>2010-01-01T01:42:27Z</time>
      </trkpt>
      <trkpt lat="53.36623000" lon="12.69255000">
        <ele>64.000000</ele>
        <time>2010-01-01T01:43:22Z</time>
      </trkpt>
      <trkpt lat="53.36638000" lon="12.69261000">
        <ele>64.000000</ele>
        <time>2010-01-01T01:43:28Z</time>
      </trkpt>
      <trkpt lat="53.36657000" lon="12.69256000">
        <ele>64.000000</ele>
        <time>2010-01-01T01:43:36Z</time>
      </trkpt>
      <trkpt lat="53.36670000" lon="12.69244000">
        <ele>65.000000</ele>
        <time>2010-01-01T01:43:42Z</time>
      </trkpt>
      <trkpt lat="53.36688000" lon="12.69217000">
        <ele>65.000000</ele>
        <time>2010-01-01T01:43:51Z</time>
      </trkpt>
      <trkpt lat="53.36837000" lon="12.69067000">
        <ele>65.000000</ele>
        <time>2010-01-01T01:45:01Z</time>
      </trkpt>
      <trkpt lat="53.36911000" lon="12.68981000">
        <ele>63.000000</ele>
        <time>2010-01-01T01:45:37Z</time>
      </trkpt>
      <trkpt lat="53.36973000" lon="12.68932000">
        <ele>62.000000</ele>
        <time>2010-01-01T01:46:04Z</time>
      </trkpt>
      <trkpt lat="53.37009000" lon="12.68912000">
        <ele>63.000000</ele>
        <time>2010-01-01T01:46:20Z</time>
      </trkpt>
      <trkpt lat="53.37070000" lon="12.68874000">
        <ele>63.000000</ele>
        <time>2010-01-01T01:46:46Z</time>
      </trkpt>
      <trkpt lat="53.37205000" lon="12.68782000">
        <ele>64.000000</ele>
        <time>2010-01-01T01:47:44Z</time>
      </trkpt>
      <trkpt lat="53.37237000" lon="12.68763000">
        <ele>63.000000</ele>
        <time>2010-01-01T01:47:58Z</time>
      </trkpt>
      <trkpt lat="53.37333000" lon="12.68752000">
        <ele>61.000000</ele>
        <time>2010-01-01T01:48:36Z</time>
      </trkpt>
      <trkpt lat="53.37422000" lon="12.68742000">
        <ele>63.000000</ele>
        <time>2010-01-01T01:49:12Z</time>
      </trkpt>
      <trkpt lat="53.37564000" lon="12.68704000">
        <ele>62.000000</ele>
        <time>2010-01-01T01:50:09Z</time>
      </trkpt>
      <trkpt lat="53.37658000" lon="12.68645000">
        <ele>63.000000</ele>
        <time>2010-01-01T01:50:50Z</time>
      </trkpt>
      <trkpt lat="53.37685000" lon="12.68636000">
        <ele>64.000000</ele>
        <time>2010-01-01T01:51:01Z</time>
      </trkpt>
      <trkpt lat="53.37744000" lon="12.68592000">
        <ele>65.000000</ele>
        <time>2010-01-01T01:51:26Z</time>
      </trkpt>
      <trkpt lat="53.37759000" lon="12.68585000">
        <ele>65.000000</ele>
        <time>2010-01-01T01:51:33Z</time>
      </trkpt>
      <trkpt lat="53.37807000" lon="12.68573000">
        <ele>63.000000</ele>
        <time>2010-01-01T01:51:52Z</time>
      </trkpt>
      <trkpt lat="53.38164000" lon="12.68394000">
        <ele>68.000000</ele>
        <time>2010-01-01T01:54:21Z</time>
      </trkpt>
      <trkpt lat="53.38028000" lon="12.67516000">
        <ele>75.000000</ele>
        <time>2010-01-01T01:57:58Z</time>
      </trkpt>
      <trkpt lat="53.38028000" lon="12.67515000">
        <ele>75.000000</ele>
        <time>2010-01-01T01:57:58Z</time>
      </trkpt>
      <trkpt lat="53.37986000" lon="12.67242000">
        <ele>77.000000</ele>
        <time>2010-01-01T01:59:05Z</time>
      </trkpt>
      <trkpt lat="53.37971000" lon="12.67158000">
        <ele>74.000000</ele>
        <time>2010-01-01T01:59:26Z</time>
      </trkpt>
      <trkpt lat="53.37932000" lon="12.67167000">
        <ele>72.000000</ele>
        <time>2010-01-01T01:59:42Z</time>
      </trkpt>
      <trkpt lat="53.37927000" lon="12.67157000">
        <ele>71.000000</ele>
        <time>2010-01-01T01:59:45Z</time>
      </trkpt>
      <trkpt lat="53.37910000" lon="12.67033000">
        <ele>69.000000</ele>
        <time>2010-01-01T02:00:16Z</time>
      </trkpt>
      <trkpt lat="53.37900000" lon="12.67014000">
        <ele>69.000000</ele>
        <time>2010-01-01T02:00:22Z</time>
      </trkpt>
      <trkpt lat="53.37892000" lon="12.66968000">
        <ele>69.000000</ele>
        <time>2010-01-01T02:00:33Z</time>
      </trkpt>
      <trkpt lat="53.37914000" lon="12.66960000">
        <ele>70.000000</ele>
        <time>2010-01-01T02:00:42Z</time>
      </trkpt>
      <trkpt lat="53.37901000" lon="12.66833000">
        <ele>68.000000</ele>
        <time>2010-01-01T02:01:13Z</time>
      </trkpt>
      <trkpt lat="53.37902000" lon="12.66815000">
        <ele>67.000000</ele>
        <time>2010-01-01T02:01:17Z</time>
      </trkpt>
      <trkpt lat="53.37917000" lon="12.66773000">
        <ele>67.000000</ele>
        <time>2010-01-01T02:01:29Z</time>
      </trkpt>
      <trkpt lat="53.37906000" lon="12.66722000">
        <ele>67.000000</ele>
        <time>2010-01-01T02:01:42Z</time>
      </trkpt>
      <trkpt lat="53.37906000" lon="12.66721000">
        <ele>67.000000</ele>
        <time>2010-01-01T02:01:42Z</time>
      </trkpt>
      <trkpt lat="53.37867000" lon="12.66455000">
        <ele>71.000000</ele>
        <time>2010-01-01T02:02:48Z</time>
      </trkpt>
      <trkpt lat="53.38015000" lon="12.66188000">
        <ele>69.000000</ele>
        <time>2010-01-01T02:04:15Z</time>
      </trkpt>
      <trkpt lat="53.38316000" lon="12.65656000">
        <ele>68.000000</ele>
        <time>2010-01-01T02:07:10Z</time>
      </trkpt>
      <trkpt lat="53.38329000" lon="12.65650000">
        <ele>68.000000</ele>
        <time>2010-01-01T02:07:15Z</time>
      </trkpt>
      <trkpt lat="53.38343000" lon="12.65650000">
        <ele>67.000000</ele>
        <time>2010-01-01T02:07:21Z</time>
      </trkpt>
      <trkpt lat="53.38394000" lon="12.65663000">
        <ele>66.000000</ele>
        <time>2010-01-01T02:07:41Z</time>
      </trkpt>
      <trkpt lat="53.38578000" lon="12.65721000">
        <ele>66.000000</ele>
        <time>2010-01-01T02:08:56Z</time>
      </trkpt>
      <trkpt lat="53.38577000" lon="12.65721000">
        <ele>66.000000</ele>
        <time>2010-01-01T02:08:57Z</time>
      </trkpt>
      <trkpt lat="53.38689000" lon="12.65763000">
        <ele>69.000000</ele>
        <time>2010-01-01T02:09:43Z</time>
      </trkpt>
      <trkpt lat="53.38847000" lon="12.65828000">
        <ele>72.000000</ele>
        <time>2010-01-01T02:10:48Z</time>
      </trkpt>
      <trkpt lat="53.38928000" lon="12.65851000">
        <ele>74.000000</ele>
        <time>2010-01-01T02:11:21Z</time>
      </trkpt>
      <trkpt lat="53.38994000" lon="12.65891000">
        <ele>70.000000</ele>
        <time>2010-01-01T02:11:49Z</time>
      </trkpt>
      <trkpt lat="53.39017000" lon="12.65889000">
        <ele>68.000000</ele>
        <time>2010-01-01T02:11:58Z</time>
      </trkpt>
      <trkpt lat="53.39038000" lon="12.65875000">
        <ele>68.000000</ele>
        <time>2010-01-01T02:12:07Z</time>
      </trkpt>
      <trkpt lat="53.39085000" lon="12.65834000">
        <ele>65.000000</ele>
        <time>2010-01-01T02:12:28Z</time>
      </trkpt>
      <trkpt lat="53.39090000" lon="12.65824000">
        <ele>66.000000</ele>
        <time>2010-01-01T02:12:31Z</time>
      </trkpt>
      <trkpt lat="53.39090000" lon="12.65811000">
        <ele>67.000000</ele>
        <time>2010-01-01T02:12:34Z</time>
      </trkpt>
      <trkpt lat="53.39075000" lon="12.65677000">
        <ele>68.000000</ele>
        <time>2010-01-01T02:13:07Z</time>
      </trkpt>
      <trkpt lat="53.39069000" lon="12.65639000">
        <ele>68.000000</ele>
        <time>2010-01-01T02:13:16Z</time>
      </trkpt>
      <trkpt lat="53.39066000" lon="12.65619000">
        <ele>68.000000</ele>
        <time>2010-01-01T02:13:21Z</time>
      </trkpt>
      <trkpt lat="53.39048000" lon="12.65559000">
        <ele>70.000000</ele>
        <time>2010-01-01T02:13:37Z</time>
      </trkpt>
      <trkpt lat="53.39031000" lon="12.65474000">
        <ele>69.000000</ele>
        <time>2010-01-01T02:13:59Z</time>
      </trkpt>
      <trkpt lat="53.39023000" lon="12.65421000">
        <ele>68.000000</ele>
        <time>2010-01-01T02:14:12Z</time>
      </trkpt>
      <trkpt lat="53.39019000" lon="12.65365000">
        <ele>66.000000</ele>
        <time>2010-01-01T02:14:25Z</time>
      </trkpt>
      <trkpt lat="53.38985000" lon="12.65205000">
        <ele>69.000000</ele>
        <time>2010-01-01T02:15:06Z</time>
      </trkpt>
      <trkpt lat="53.38981000" lon="12.65166000">
        <ele>71.000000</ele>
        <time>2010-01-01T02:15:15Z</time>
      </trkpt>
      <trkpt lat="53.38981000" lon="12.65103000">
        <ele>71.000000</ele>
        <time>2010-01-01T02:15:30Z</time>
      </trkpt>
      <trkpt lat="53.38986000" lon="12.65037000">
        <ele>69.000000</ele>
        <time>2010-01-01T02:15:46Z</time>
      </trkpt>
      <trkpt lat="53.38987000" lon="12.65006000">
        <ele>67.000000</ele>
        <time>2010-01-01T02:15:53Z</time>
      </trkpt>
      <trkpt lat="53.38983000" lon="12.64962000">
        <ele>67.000000</ele>
        <time>2010-01-01T02:16:04Z</time>
      </trkpt>
      <trkpt lat="53.38991000" lon="12.64894000">
        <ele>66.000000</ele>
        <time>2010-01-01T02:16:21Z</time>
      </trkpt>
      <trkpt lat="53.39004000" lon="12.64821000">
        <ele>64.000000</ele>
        <time>2010-01-01T02:16:39Z</time>
      </trkpt>
      <trkpt lat="53.39040000" lon="12.64648000">
        <ele>63.000000</ele>
        <time>2010-01-01T02:17:23Z</time>
      </trkpt>
      <trkpt lat="53.39059000" lon="12.64568000">
        <ele>64.000000</ele>
        <time>2010-01-01T02:17:43Z</time>
      </trkpt>
      <trkpt lat="53.39061000" lon="12.64548000">
        <ele>64.000000</ele>
        <time>2010-01-01T02:17:48Z</time>
      </trkpt>
      <trkpt lat="53.39060000" lon="12.64529000">
        <ele>64.000000</ele>
        <time>2010-01-01T02:17:53Z</time>
      </trkpt>
      <trkpt lat="53.39050000" lon="12.64432000">
        <ele>61.000000</ele>
        <time>2010-01-01T02:18:16Z</time>
      </trkpt>
      <trkpt lat="53.39053000" lon="12.64369000">
        <ele>59.000000</ele>
        <time>2010-01-01T02:18:31Z</time>
      </trkpt>
      <trkpt lat="53.39061000" lon="12.64315000">
        <ele>59.000000</ele>
        <time>2010-01-01T02:18:44Z</time>
      </trkpt>
      <trkpt lat="53.39066000" lon="12.64300000">
        <ele>60.000000</ele>
        <time>2010-01-01T02:18:49Z</time>
      </trkpt>
      <trkpt lat="53.39076000" lon="12.64284000">
        <ele>60.000000</ele>
        <time>2010-01-01T02:18:54Z</time>
      </trkpt>
      <trkpt lat="53.39114000" lon="12.64222000">
        <ele>62.000000</ele>
        <time>2010-01-01T02:19:15Z</time>
      </trkpt>
      <trkpt lat="53.39132000" lon="12.64183000">
        <ele>62.000000</ele>
        <time>2010-01-01T02:19:27Z</time>
      </trkpt>
      <trkpt lat="53.39134000" lon="12.64173000">
        <ele>62.000000</ele>
        <time>2010-01-01T02:19:30Z</time>
      </trkpt>
      <trkpt lat="53.39134000" lon="12.64165000">
        <ele>62.000000</ele>
        <time>2010-01-01T02:19:31Z</time>
      </trkpt>
      <trkpt lat="53.39129000" lon="12.64137000">
        <ele>62.000000</ele>
        <time>2010-01-01T02:19:38Z</time>
      </trkpt>
      <trkpt lat="53.39108000" lon="12.64050000">
        <ele>61.000000</ele>
        <time>2010-01-01T02:20:01Z</time>
      </trkpt>
      <trkpt lat="53.39101000" lon="12.63936000">
        <ele>61.000000</ele>
        <time>2010-01-01T02:20:28Z</time>
      </trkpt>
      <trkpt lat="53.39106000" lon="12.63875000">
        <ele>62.000000</ele>
        <time>2010-01-01T02:20:43Z</time>
      </trkpt>
      <trkpt lat="53.39112000" lon="12.63735000">
        <ele>61.000000</ele>
        <time>2010-01-01T02:21:16Z</time>
      </trkpt>
      <trkpt lat="53.39133000" lon="12.63631000">
        <ele>63.000000</ele>
        <time>2010-01-01T02:21:43Z</time>
      </trkpt>
      <trkpt lat="53.39130000" lon="12.63572000">
        <ele>63.000000</ele>
        <time>2010-01-01T02:21:57Z</time>
      </trkpt>
      <trkpt lat="53.39126000" lon="12.63522000">
        <ele>63.000000</ele>
        <time>2010-01-01T02:22:09Z</time>
      </trkpt>
      <trkpt lat="53.39119000" lon="12.63491000">
        <ele>63.000000</ele>
        <time>2010-01-01T02:22:17Z</time>
      </trkpt>
      <trkpt lat="53.39113000" lon="12.63477000">
        <ele>64.000000</ele>
        <time>2010-01-01T02:22:21Z</time>
      </trkpt>
      <trkpt lat="53.39088000" lon="12.63452000">
        <ele>65.000000</ele>
        <time>2010-01-01T02:22:32Z</time>
      </trkpt>
      <trkpt lat="53.39076000" lon="12.63445000">
        <ele>66.000000</ele>
        <time>2010-01-01T02:22:38Z</time>
      </trkpt>
      <trkpt lat="53.39062000" lon="12.63445000">
        <ele>66.000000</ele>
        <time>2010-01-01T02:22:43Z</time>
      </trkpt>
      <trkpt lat="53.39044000" lon="12.63445000">
        <ele>66.000000</ele>
        <time>2010-01-01T02:22:50Z</time>
      </trkpt>
      <trkpt lat="53.39037000" lon="12.63449000">
        <ele>66.000000</ele>
        <time>2010-01-01T02:22:53Z</time>
      </trkpt>
      <trkpt lat="53.39020000" lon="12.63424000">
        <ele>66.000000</ele>
        <time>2010-01-01T02:23:02Z</time>
      </trkpt>
      <trkpt lat="53.38989000" lon="12.63398000">
        <ele>67.000000</ele>
        <time>2010-01-01T02:23:16Z</time>
      </trkpt>
      <trkpt lat="53.38979000" lon="12.63373000">
        <ele>67.000000</ele>
        <time>2010-01-01T02:23:23Z</time>
      </trkpt>
      <trkpt lat="53.38960000" lon="12.63333000">
        <ele>68.000000</ele>
        <time>2010-01-01T02:23:36Z</time>
      </trkpt>
      <trkpt lat="53.38945000" lon="12.63285000">
        <ele>67.000000</ele>
        <time>2010-01-01T02:23:49Z</time>
      </trkpt>
      <trkpt lat="53.38929000" lon="12.63249000">
        <ele>68.000000</ele>
        <time>2010-01-01T02:23:59Z</time>
      </trkpt>
      <trkpt lat="53.38920000" lon="12.63223000">
        <ele>70.000000</ele>
        <time>2010-01-01T02:24:06Z</time>
      </trkpt>
      <trkpt lat="53.38907000" lon="12.63151000">
        <ele>67.000000</ele>
        <time>2010-01-01T02:24:24Z</time>
      </trkpt>
      <trkpt lat="53.38899000" lon="12.63083000">
        <ele>66.000000</ele>
        <time>2010-01-01T02:24:41Z</time>
      </trkpt>
      <trkpt lat="53.38882000" lon="12.62967000">
        <ele>69.000000</ele>
        <time>2010-01-01T02:25:10Z</time>
      </trkpt>
      <trkpt lat="53.38880000" lon="12.62945000">
        <ele>69.000000</ele>
        <time>2010-01-01T02:25:15Z</time>
      </trkpt>
      <trkpt lat="53.38880000" lon="12.62902000">
        <ele>67.000000</ele>
        <time>2010-01-01T02:25:25Z</time>
      </trkpt>
      <trkpt lat="53.38874000" lon="12.62877000">
        <ele>67.000000</ele>
        <time>2010-01-01T02:25:32Z</time>
      </trkpt>
      <trkpt lat="53.38875000" lon="12.62837000">
        <ele>67.000000</ele>
        <time>2010-01-01T02:25:41Z</time>
      </trkpt>
      <trkpt lat="53.38894000" lon="12.62714000">
        <ele>67.000000</ele>
        <time>2010-01-01T02:26:11Z</time>
      </trkpt>
      <trkpt lat="53.38901000" lon="12.62683000">
        <ele>66.000000</ele>
        <time>2010-01-01T02:26:19Z</time>
      </trkpt>
      <trkpt lat="53.38901000" lon="12.62670000">
        <ele>66.000000</ele>
        <time>2010-01-01T02:26:22Z</time>
      </trkpt>
      <trkpt lat="53.38895000" lon="12.62630000">
        <ele>64.000000</ele>
        <time>2010-01-01T02:26:32Z</time>
      </trkpt>
      <trkpt lat="53.38890000" lon="12.62625000">
        <ele>64.000000</ele>
        <time>2010-01-01T02:26:35Z</time>
      </trkpt>
      <trkpt lat="53.38872000" lon="12.62635000">
        <ele>68.000000</ele>
        <time>2010-01-01T02:26:42Z</time>
      </trkpt>
      <trkpt lat="53.38844000" lon="12.62627000">
        <ele>69.000000</ele>
        <time>2010-01-01T02:26:54Z</time>
      </trkpt>
      <trkpt lat="53.38828000" lon="12.62599000">
        <ele>68.000000</ele>
        <time>2010-01-01T02:27:03Z</time>
      </trkpt>
      <trkpt lat="53.38814000" lon="12.62589000">
        <ele>67.000000</ele>
        <time>2010-01-01T02:27:09Z</time>
      </trkpt>
      <trkpt lat="53.38774000" lon="12.62553000">
        <ele>66.000000</ele>
        <time>2010-01-01T02:27:27Z</time>
      </trkpt>
      <trkpt lat="53.38754000" lon="12.62541000">
        <ele>67.000000</ele>
        <time>2010-01-01T02:27:36Z</time>
      </trkpt>
      <trkpt lat="53.38735000" lon="12.62526000">
        <ele>67.000000</ele>
        <time>2010-01-01T02:27:44Z</time>
      </trkpt>
      <trkpt lat="53.38724000" lon="12.62536000">
        <ele>67.000000</ele>
        <time>2010-01-01T02:27:49Z</time>
      </trkpt>
      <trkpt lat="53.38713000" lon="12.62538000">
        <ele>67.000000</ele>
        <time>2010-01-01T02:27:53Z</time>
      </trkpt>
      <trkpt lat="53.38663000" lon="12.62507000">
        <ele>67.000000</ele>
        <time>2010-01-01T02:28:15Z</time>
      </trkpt>
      <trkpt lat="53.38624000" lon="12.62464000">
        <ele>72.000000</ele>
        <time>2010-01-01T02:28:33Z</time>
      </trkpt>
      <trkpt lat="53.38605000" lon="12.62435000">
        <ele>72.000000</ele>
        <time>2010-01-01T02:28:44Z</time>
      </trkpt>
      <trkpt lat="53.38580000" lon="12.62389000">
        <ele>73.000000</ele>
        <time>2010-01-01T02:28:59Z</time>
      </trkpt>
      <trkpt lat="53.38564000" lon="12.62356000">
        <ele>72.000000</ele>
        <time>2010-01-01T02:29:09Z</time>
      </trkpt>
      <trkpt lat="53.38553000" lon="12.62319000">
        <ele>71.000000</ele>
        <time>2010-01-01T02:29:19Z</time>
      </trkpt>
      <trkpt lat="53.38513000" lon="12.62245000">
        <ele>71.000000</ele>
        <time>2010-01-01T02:29:42Z</time>
      </trkpt>
      <trkpt lat="53.38505000" lon="12.62225000">
        <ele>72.000000</ele>
        <time>2010-01-01T02:29:48Z</time>
      </trkpt>
      <trkpt lat="53.38503000" lon="12.62209000">
        <ele>71.000000</ele>
        <time>2010-01-01T02:29:52Z</time>
      </trkpt>
      <trkpt lat="53.38498000" lon="12.62198000">
        <ele>71.000000</ele>
        <time>2010-01-01T02:29:55Z</time>
      </trkpt>
      <trkpt lat="53.38495000" lon="12.62163000">
        <ele>69.000000</ele>
        <time>2010-01-01T02:30:04Z</time>
      </trkpt>
      <trkpt lat="53.38479000" lon="12.62096000">
        <ele>70.000000</ele>
        <time>2010-01-01T02:30:21Z</time>
      </trkpt>
      <trkpt lat="53.38463000" lon="12.62045000">
        <ele>69.000000</ele>
        <time>2010-01-01T02:30:35Z</time>
      </trkpt>
      <trkpt lat="53.38452000" lon="12.62038000">
        <ele>68.000000</ele>
        <time>2010-01-01T02:30:40Z</time>
      </trkpt>
      <trkpt lat="53.38377000" lon="12.62026000">
        <ele>68.000000</ele>
        <time>2010-01-01T02:31:10Z</time>
      </trkpt>
      <trkpt lat="53.38361000" lon="12.62022000">
        <ele>70.000000</ele>
        <time>2010-01-01T02:31:16Z</time>
      </trkpt>
      <trkpt lat="53.38344000" lon="12.62028000">
        <ele>69.000000</ele>
        <time>2010-01-01T02:31:23Z</time>
      </trkpt>
      <trkpt lat="53.38327000" lon="12.62029000">
        <ele>70.000000</ele>
        <time>2010-01-01T02:31:30Z</time>
      </trkpt>
      <trkpt lat="53.38311000" lon="12.62007000">
        <ele>71.000000</ele>
        <time>2010-01-01T02:31:38Z</time>
      </trkpt>
      <trkpt lat="53.38276000" lon="12.61951000">
        <ele>73.000000</ele>
        <time>2010-01-01T02:31:58Z</time>
      </trkpt>
      <trkpt lat="53.38267000" lon="12.61943000">
        <ele>72.000000</ele>
        <time>2010-01-01T02:32:02Z</time>
      </trkpt>
      <trkpt lat="53.38266000" lon="12.61943000">
        <ele>72.000000</ele>
        <time>2010-01-01T02:32:02Z</time>
      </trkpt>
      <trkpt lat="53.38191000" lon="12.61876000">
        <ele>67.000000</ele>
        <time>2010-01-01T02:32:36Z</time>
      </trkpt>
      <trkpt lat="53.38025000" lon="12.61785000">
        <ele>71.000000</ele>
        <time>2010-01-01T02:33:46Z</time>
      </trkpt>
      <trkpt lat="53.38004000" lon="12.61729000">
        <ele>69.000000</ele>
        <time>2010-01-01T02:34:02Z</time>
      </trkpt>
      <trkpt lat="53.37990000" lon="12.61705000">
        <ele>67.000000</ele>
        <time>2010-01-01T02:34:10Z</time>
      </trkpt>
      <trkpt lat="53.37982000" lon="12.61695000">
        <ele>66.000000</ele>
        <time>2010-01-01T02:34:14Z</time>
      </trkpt>
      <trkpt lat="53.37933000" lon="12.61657000">
        <ele>64.000000</ele>
        <time>2010-01-01T02:34:35Z</time>
      </trkpt>
      <trkpt lat="53.37905000" lon="12.61646000">
        <ele>64.000000</ele>
        <time>2010-01-01T02:34:47Z</time>
      </trkpt>
      <trkpt lat="53.37884000" lon="12.61647000">
        <ele>63.000000</ele>
        <time>2010-01-01T02:34:55Z</time>
      </trkpt>
      <trkpt lat="53.37869000" lon="12.61659000">
        <ele>63.000000</ele>
        <time>2010-01-01T02:35:02Z</time>
      </trkpt>
      <trkpt lat="53.37861000" lon="12.61673000">
        <ele>63.000000</ele>
        <time>2010-01-01T02:35:07Z</time>
      </trkpt>
      <trkpt lat="53.37853000" lon="12.61698000">
        <ele>63.000000</ele>
        <time>2010-01-01T02:35:13Z</time>
      </trkpt>
      <trkpt lat="53.37829000" lon="12.61845000">
        <ele>61.000000</ele>
        <time>2010-01-01T02:35:50Z</time>
      </trkpt>
      <trkpt lat="53.37829000" lon="12.61871000">
        <ele>61.000000</ele>
        <time>2010-01-01T02:35:56Z</time>
      </trkpt>
      <trkpt lat="53.37831000" lon="12.61903000">
        <ele>62.000000</ele>
        <time>2010-01-01T02:36:04Z</time>
      </trkpt>
      <trkpt lat="53.37836000" lon="12.61920000">
        <ele>63.000000</ele>
        <time>2010-01-01T02:36:08Z</time>
      </trkpt>
      <trkpt lat="53.37844000" lon="12.61942000">
        <ele>64.000000</ele>
        <time>2010-01-01T02:36:14Z</time>
      </trkpt>
      <trkpt lat="53.37875000" lon="12.62005000">
        <ele>64.000000</ele>
        <time>2010-01-01T02:36:34Z</time>
      </trkpt>
      <trkpt lat="53.37884000" lon="12.62038000">
        <ele>64.000000</ele>
        <time>2010-01-01T02:36:43Z</time>
      </trkpt>
      <trkpt lat="53.37895000" lon="12.62105000">
        <ele>63.000000</ele>
        <time>2010-01-01T02:36:59Z</time>
      </trkpt>
      <trkpt lat="53.37910000" lon="12.62167000">
        <ele>61.000000</ele>
        <time>2010-01-01T02:37:15Z</time>
      </trkpt>
      <trkpt lat="53.37936000" lon="12.62243000">
        <ele>62.000000</ele>
        <time>2010-01-01T02:37:36Z</time>
      </trkpt>
      <trkpt lat="53.37949000" lon="12.62423000">
        <ele>64.000000</ele>
        <time>2010-01-01T02:38:19Z</time>
      </trkpt>
      <trkpt lat="53.37974000" lon="12.62694000">
        <ele>64.000000</ele>
        <time>2010-01-01T02:39:25Z</time>
      </trkpt>
      <trkpt lat="53.37952000" lon="12.62968000">
        <ele>63.000000</ele>
        <time>2010-01-01T02:40:31Z</time>
      </trkpt>
      <trkpt lat="53.37947000" lon="12.62980000">
        <ele>63.000000</ele>
        <time>2010-01-01T02:40:34Z</time>
      </trkpt>
      <trkpt lat="53.37938000" lon="12.62992000">
        <ele>63.000000</ele>
        <time>2010-01-01T02:40:39Z</time>
      </trkpt>
      <trkpt lat="53.37880000" lon="12.63048000">
        <ele>62.000000</ele>
        <time>2010-01-01T02:41:06Z</time>
      </trkpt>
      <trkpt lat="53.37869000" lon="12.63055000">
        <ele>62.000000</ele>
        <time>2010-01-01T02:41:10Z</time>
      </trkpt>
      <trkpt lat="53.37854000" lon="12.63057000">
        <ele>62.000000</ele>
        <time>2010-01-01T02:41:16Z</time>
      </trkpt>
      <trkpt lat="53.37835000" lon="12.63051000">
        <ele>61.000000</ele>
        <time>2010-01-01T02:41:24Z</time>
      </trkpt>
      <trkpt lat="53.37831000" lon="12.63047000">
        <ele>61.000000</ele>
        <time>2010-01-01T02:41:26Z</time>
      </trkpt>
      <trkpt lat="53.37797000" lon="12.62985000">
        <ele>61.000000</ele>
        <time>2010-01-01T02:41:46Z</time>
      </trkpt>
      <trkpt lat="53.37768000" lon="12.62860000">
        <ele>59.000000</ele>
        <time>2010-01-01T02:42:18Z</time>
      </trkpt>
      <trkpt lat="53.37767000" lon="12.62860000">
        <ele>59.000000</ele>
        <time>2010-01-01T02:42:19Z</time>
      </trkpt>
      <trkpt lat="53.37756000" lon="12.62813000">
        <ele>57.000000</ele>
        <time>2010-01-01T02:42:31Z</time>
      </trkpt>
      <trkpt lat="53.37747000" lon="12.62737000">
        <ele>58.000000</ele>
        <time>2010-01-01T02:42:49Z</time>
      </trkpt>
      <trkpt lat="53.37711000" lon="12.62661000">
        <ele>62.000000</ele>
        <time>2010-01-01T02:43:12Z</time>
      </trkpt>
      <trkpt lat="53.37638000" lon="12.62554000">
        <ele>63.000000</ele>
        <time>2010-01-01T02:43:51Z</time>
      </trkpt>
      <trkpt lat="53.37617000" lon="12.62529000">
        <ele>63.000000</ele>
        <time>2010-01-01T02:44:01Z</time>
      </trkpt>
      <trkpt lat="53.37596000" lon="12.62509000">
        <ele>63.000000</ele>
        <time>2010-01-01T02:44:11Z</time>
      </trkpt>
      <trkpt lat="53.37585000" lon="12.62505000">
        <ele>63.000000</ele>
        <time>2010-01-01T02:44:16Z</time>
      </trkpt>
      <trkpt lat="53.37567000" lon="12.62509000">
        <ele>63.000000</ele>
        <time>2010-01-01T02:44:23Z</time>
      </trkpt>
      <trkpt lat="53.37559000" lon="12.62507000">
        <ele>63.000000</ele>
        <time>2010-01-01T02:44:26Z</time>
      </trkpt>
      <trkpt lat="53.37554000" lon="12.62501000">
        <ele>63.000000</ele>
        <time>2010-01-01T02:44:29Z</time>
      </trkpt>
      <trkpt lat="53.37550000" lon="12.62490000">
        <ele>63.000000</ele>
        <time>2010-01-01T02:44:32Z</time>
      </trkpt>
      <trkpt lat="53.37549000" lon="12.62481000">
        <ele>63.000000</ele>
        <time>2010-01-01T02:44:34Z</time>
      </trkpt>
      <trkpt lat="53.37552000" lon="12.62472000">
        <ele>63.000000</ele>
        <time>2010-01-01T02:44:36Z</time>
      </trkpt>
      <trkpt lat="53.37557000" lon="12.62450000">
        <ele>63.000000</ele>
        <time>2010-01-01T02:44:42Z</time>
      </trkpt>
      <trkpt lat="53.37566000" lon="12.62344000">
        <ele>62.000000</ele>
        <time>2010-01-01T02:45:08Z</time>
      </trkpt>
      <trkpt lat="53.37564000" lon="12.62328000">
        <ele>61.000000</ele>
        <time>2010-01-01T02:45:11Z</time>
      </trkpt>
      <trkpt lat="53.37559000" lon="12.62313000">
        <ele>61.000000</ele>
        <time>2010-01-01T02:45:16Z</time>
      </trkpt>
      <trkpt lat="53.37498000" lon="12.62163000">
        <ele>61.000000</ele>
        <time>2010-01-01T02:45:59Z</time>
      </trkpt>
      <trkpt lat="53.37474000" lon="12.62089000">
        <ele>61.000000</ele>
        <time>2010-01-01T02:46:19Z</time>
      </trkpt>
      <trkpt lat="53.37468000" lon="12.62041000">
        <ele>60.000000</ele>
        <time>2010-01-01T02:46:31Z</time>
      </trkpt>
      <trkpt lat="53.37468000" lon="12.61997000">
        <ele>60.000000</ele>
        <time>2010-01-01T02:46:41Z</time>
      </trkpt>
      <trkpt lat="53.37473000" lon="12.61929000">
        <ele>61.000000</ele>
        <time>2010-01-01T02:46:58Z</time>
      </trkpt>
      <trkpt lat="53.37477000" lon="12.61908000">
        <ele>62.000000</ele>
        <time>2010-01-01T02:47:03Z</time>
      </trkpt>
      <trkpt lat="53.37487000" lon="12.61867000">
        <ele>62.000000</ele>
        <time>2010-01-01T02:47:13Z</time>
      </trkpt>
      <trkpt lat="53.37531000" lon="12.61782000">
        <ele>63.000000</ele>
        <time>2010-01-01T02:47:40Z</time>
      </trkpt>
      <trkpt lat="53.37537000" lon="12.61762000">
        <ele>63.000000</ele>
        <time>2010-01-01T02:47:46Z</time>
      </trkpt>
      <trkpt lat="53.37537000" lon="12.61745000">
        <ele>64.000000</ele>
        <time>2010-01-01T02:47:50Z</time>
      </trkpt>
      <trkpt lat="53.37518000" lon="12.61651000">
        <ele>64.000000</ele>
        <time>2010-01-01T02:48:13Z</time>
      </trkpt>
      <trkpt lat="53.37518000" lon="12.61650000">
        <ele>64.000000</ele>
        <time>2010-01-01T02:48:14Z</time>
      </trkpt>
      <trkpt lat="53.37512000" lon="12.61623000">
        <ele>64.000000</ele>
        <time>2010-01-01T02:48:21Z</time>
      </trkpt>
      <trkpt lat="53.37579000" lon="12.61563000">
        <ele>66.000000</ele>
        <time>2010-01-01T02:48:51Z</time>
      </trkpt>
      <trkpt lat="53.37581000" lon="12.61551000">
        <ele>66.000000</ele>
        <time>2010-01-01T02:48:54Z</time>
      </trkpt>
      <trkpt lat="53.37552000" lon="12.61404000">
        <ele>65.000000</ele>
        <time>2010-01-01T02:49:31Z</time>
      </trkpt>
      <trkpt lat="53.37524000" lon="12.61319000">
        <ele>65.000000</ele>
        <time>2010-01-01T02:49:54Z</time>
      </trkpt>
      <trkpt lat="53.37524000" lon="12.61318000">
        <ele>65.000000</ele>
        <time>2010-01-01T02:49:54Z</time>
      </trkpt>
      <trkpt lat="53.37513000" lon="12.61294000">
        <ele>65.000000</ele>
        <time>2010-01-01T02:50:02Z</time>
      </trkpt>
      <trkpt lat="53.37512000" lon="12.61267000">
        <ele>65.000000</ele>
        <time>2010-01-01T02:50:08Z</time>
      </trkpt>
      <trkpt lat="53.37521000" lon="12.61173000">
        <ele>65.000000</ele>
        <time>2010-01-01T02:50:31Z</time>
      </trkpt>
      <trkpt lat="53.37520000" lon="12.61145000">
        <ele>64.000000</ele>
        <time>2010-01-01T02:50:37Z</time>
      </trkpt>
      <trkpt lat="53.37515000" lon="12.61122000">
        <ele>64.000000</ele>
        <time>2010-01-01T02:50:43Z</time>
      </trkpt>
      <trkpt lat="53.37480000" lon="12.61021000">
        <ele>66.000000</ele>
        <time>2010-01-01T02:51:11Z</time>
      </trkpt>
      <trkpt lat="53.37480000" lon="12.61022000">
        <ele>66.000000</ele>
        <time>2010-01-01T02:51:11Z</time>
      </trkpt>
      <trkpt lat="53.37517000" lon="12.60978000">
        <ele>66.000000</ele>
        <time>2010-01-01T02:51:30Z</time>
      </trkpt>
      <trkpt lat="53.37532000" lon="12.60952000">
        <ele>66.000000</ele>
        <time>2010-01-01T02:51:38Z</time>
      </trkpt>
      <trkpt lat="53.37570000" lon="12.60862000">
        <ele>69.000000</ele>
        <time>2010-01-01T02:52:05Z</time>
      </trkpt>
      <trkpt lat="53.37577000" lon="12.60834000">
        <ele>69.000000</ele>
        <time>2010-01-01T02:52:12Z</time>
      </trkpt>
      <trkpt lat="53.37600000" lon="12.60731000">
        <ele>70.000000</ele>
        <time>2010-01-01T02:52:38Z</time>
      </trkpt>
      <trkpt lat="53.37615000" lon="12.60633000">
        <ele>70.000000</ele>
        <time>2010-01-01T02:53:02Z</time>
      </trkpt>
      <trkpt lat="53.37620000" lon="12.60602000">
        <ele>70.000000</ele>
        <time>2010-01-01T02:53:10Z</time>
      </trkpt>
      <trkpt lat="53.37702400" lon="12.60688620">
        <ele>69.000000</ele>
        <time>2010-01-01T02:53:49Z</time>
      </trkpt>
    </trkseg>
  </trk>
</gpx>

